createdAt,value
2022-11-20T00:00:18.841Z,71.81
2022-11-20T00:05:18.163Z,72.09
2022-11-20T00:10:17.086Z,73.26
2022-11-20T00:15:16.235Z,74.67
2022-11-20T00:20:16.065Z,72.61
2022-11-20T00:25:15.650Z,72.57
2022-11-20T00:30:15.373Z,73.09
2022-11-20T00:35:14.383Z,73.48
2022-11-20T00:40:13.684Z,73.30
2022-11-20T00:45:12.702Z,73.86
2022-11-20T00:50:11.514Z,72.82
2022-11-20T00:55:10.514Z,71.78
2022-11-20T01:00:09.984Z,73.65
2022-11-20T01:05:11.391Z,75.32
2022-11-20T01:10:10.387Z,74.60
2022-11-20T01:15:09.958Z,75.32
2022-11-20T01:20:09.443Z,74.13
2022-11-20T01:25:08.499Z,73.42
2022-11-20T01:30:08.014Z,72.92
2022-11-20T01:35:07.013Z,71.23
2022-11-20T01:40:06.618Z,71.43
2022-11-20T01:46:03.913Z,72.28
2022-11-20T01:51:05.117Z,72.16
2022-11-20T01:56:09.279Z,72.67
2022-11-20T02:01:08.066Z,71.79
2022-11-20T02:06:56.621Z,73.29
2022-11-20T02:11:56.467Z,73.42
2022-11-20T02:16:55.975Z,73.16
2022-11-20T02:22:20.882Z,72.00
2022-11-20T02:27:19.917Z,72.62
2022-11-20T02:32:23.490Z,70.47
2022-11-20T02:37:22.958Z,72.03
2022-11-20T02:42:21.694Z,71.70
2022-11-20T02:47:20.793Z,71.65
2022-11-20T02:52:19.545Z,72.63
2022-11-20T02:57:18.627Z,72.79
2022-11-20T03:02:17.418Z,73.24
2022-11-20T03:07:16.542Z,74.33
2022-11-20T03:12:15.906Z,73.57
2022-11-20T03:17:14.801Z,72.38
2022-11-20T03:22:13.603Z,71.30
2022-11-20T03:27:12.491Z,72.57
2022-11-20T03:32:11.249Z,71.79
2022-11-20T03:37:10.528Z,70.30
2022-11-20T03:42:30.298Z,72.87
2022-11-20T03:47:29.555Z,71.90
2022-11-20T03:52:28.315Z,71.48
2022-11-20T03:57:27.108Z,71.91
2022-11-20T04:02:25.890Z,72.28
2022-11-20T04:07:24.762Z,71.92
2022-11-20T04:12:23.572Z,72.06
2022-11-20T04:17:22.432Z,72.89
2022-11-20T04:22:21.237Z,71.08
2022-11-20T04:27:20.168Z,71.70
2022-11-20T04:32:18.885Z,70.43
2022-11-20T04:37:17.716Z,72.59
2022-11-20T04:42:31.550Z,72.79
2022-11-20T04:47:30.485Z,71.79
2022-11-20T04:52:29.237Z,71.90
2022-11-20T04:57:28.007Z,73.01
2022-11-20T05:02:26.774Z,71.76
2022-11-20T05:07:25.629Z,72.45
2022-11-20T05:12:24.651Z,72.14
2022-11-20T05:17:23.528Z,73.08
2022-11-20T05:22:22.274Z,70.63
2022-11-20T05:27:21.524Z,71.74
2022-11-20T05:32:20.260Z,73.03
2022-11-20T05:37:19.081Z,73.34
2022-11-20T05:42:33.078Z,70.79
2022-11-20T05:47:35.290Z,72.74
2022-11-20T05:52:34.051Z,72.19
2022-11-20T05:57:33.148Z,72.45
2022-11-20T06:02:36.016Z,70.83
2022-11-20T06:07:34.908Z,71.74
2022-11-20T06:12:34.278Z,72.11
2022-11-20T06:17:33.273Z,70.08
2022-11-20T06:22:33.205Z,68.93
2022-11-20T06:27:32.026Z,71.64
2022-11-20T06:32:30.788Z,72.25
2022-11-20T06:37:29.582Z,70.13
2022-11-20T06:42:28.304Z,71.26
2022-11-20T06:47:27.116Z,71.76
2022-11-20T06:52:25.860Z,72.26
2022-11-20T06:57:24.767Z,72.18
2022-11-20T07:02:23.521Z,69.78
2022-11-20T07:07:22.398Z,69.61
2022-11-20T07:12:21.700Z,70.94
2022-11-20T07:17:20.544Z,71.47
2022-11-20T07:22:19.452Z,70.96
2022-11-20T07:27:18.329Z,71.76
2022-11-20T07:32:17.227Z,71.24
2022-11-20T07:37:16.928Z,71.18
2022-11-20T07:42:15.725Z,70.08
2022-11-20T07:47:14.706Z,69.46
2022-11-20T07:52:13.670Z,68.98
2022-11-20T07:57:12.514Z,70.34
2022-11-20T08:02:12.239Z,68.28
2022-11-20T08:07:11.070Z,69.32
2022-11-20T08:12:38.014Z,68.71
2022-11-20T08:17:36.907Z,67.71
2022-11-20T08:22:35.888Z,67.22
2022-11-20T08:27:34.893Z,68.15
2022-11-20T08:32:36.782Z,68.90
2022-11-20T08:37:35.680Z,67.63
2022-11-20T08:42:34.411Z,66.74
2022-11-20T08:47:33.355Z,64.79
2022-11-20T08:52:33.469Z,64.37
2022-11-20T08:57:38.585Z,64.51
2022-11-20T09:02:37.574Z,65.35
2022-11-20T09:07:36.366Z,65.61
2022-11-20T09:12:35.221Z,64.80
2022-11-20T09:17:34.037Z,66.50
2022-11-20T09:22:33.806Z,63.11
2022-11-20T09:27:32.619Z,72.83
2022-11-20T09:32:31.535Z,85.24
2022-11-20T09:37:30.237Z,56.48
2022-11-20T09:42:34.881Z,54.43
2022-11-20T09:47:51.732Z,51.82
2022-11-20T09:52:56.879Z,56.80
2022-11-20T09:57:57.301Z,57.01
2022-11-20T10:03:06.842Z,57.60
2022-11-20T10:08:25.777Z,59.75
2022-11-20T10:13:59.938Z,58.60
2022-11-20T10:19:18.873Z,58.35
2022-11-20T10:24:45.326Z,58.36
2022-11-20T10:29:53.872Z,56.58
2022-11-20T10:35:02.645Z,57.49
2022-11-20T10:40:44.792Z,54.75
2022-11-20T10:45:56.248Z,56.72
2022-11-20T10:51:19.613Z,55.88
2022-11-20T10:56:30.977Z,55.60
2022-11-20T11:01:30.028Z,57.54
2022-11-20T11:06:48.066Z,56.69
2022-11-20T11:11:46.907Z,55.79
2022-11-20T11:16:54.297Z,57.61
2022-11-20T11:21:57.530Z,59.06
2022-11-20T11:27:05.531Z,57.55
2022-11-20T11:32:06.501Z,58.36
2022-11-20T11:37:11.431Z,57.13
2022-11-20T11:42:17.095Z,59.02
2022-11-20T11:47:26.698Z,59.78
2022-11-20T11:52:26.822Z,63.09
2022-11-20T11:57:55.694Z,62.91
2022-11-20T12:02:58.638Z,61.67
2022-11-20T12:08:12.854Z,62.86
2022-11-20T12:13:12.045Z,63.49
2022-11-20T12:18:22.250Z,64.91
2022-11-20T12:23:53.584Z,64.87
2022-11-20T12:29:28.535Z,66.24
2022-11-20T12:34:36.350Z,64.74
2022-11-20T12:39:43.568Z,65.72
2022-11-20T12:45:16.304Z,66.13
2022-11-20T12:50:30.634Z,65.98
2022-11-20T12:55:43.882Z,65.97
2022-11-20T13:00:56.722Z,65.19
2022-11-20T13:06:18.464Z,64.90
2022-11-20T13:11:20.087Z,65.24
2022-11-20T13:16:28.470Z,65.20
2022-11-20T13:21:47.295Z,65.73
2022-11-20T13:26:46.917Z,65.54
2022-11-20T13:31:48.866Z,65.09
2022-11-20T13:36:52.267Z,64.42
2022-11-20T13:42:00.586Z,63.73
2022-11-20T13:46:59.480Z,63.36
2022-11-20T13:52:07.034Z,63.54
2022-11-20T13:57:24.711Z,63.62
2022-11-20T14:02:26.493Z,63.55
2022-11-20T14:07:33.020Z,64.06
2022-11-20T14:12:34.048Z,66.53
2022-11-20T14:17:35.508Z,66.26
2022-11-20T14:22:34.445Z,67.43
2022-11-20T14:27:42.131Z,67.66
2022-11-20T14:32:43.113Z,67.32
2022-11-20T14:37:42.390Z,66.86
2022-11-20T14:42:44.869Z,68.12
2022-11-20T14:47:44.636Z,68.51
2022-11-20T14:52:52.153Z,69.23
2022-11-20T14:57:57.736Z,69.35
2022-11-20T15:02:57.028Z,69.19
2022-11-20T15:08:09.214Z,68.28
2022-11-20T15:13:27.454Z,67.46
2022-11-20T15:18:39.345Z,69.37
2022-11-20T15:23:38.230Z,68.73
2022-11-20T15:28:42.316Z,68.86
2022-11-20T15:33:41.213Z,69.71
2022-11-20T15:38:39.969Z,69.88
2022-11-20T15:43:39.652Z,70.54
2022-11-20T15:48:48.269Z,71.51
2022-11-20T15:53:47.543Z,71.56
2022-11-20T15:58:46.411Z,73.11
2022-11-20T16:03:45.829Z,72.75
2022-11-20T16:08:44.772Z,72.27
2022-11-20T16:14:02.080Z,72.26
2022-11-20T16:19:01.326Z,71.50
2022-11-20T16:24:02.063Z,71.00
2022-11-20T16:29:03.538Z,70.27
2022-11-20T16:34:11.959Z,71.46
2022-11-20T16:39:17.790Z,70.73
2022-11-20T16:44:19.383Z,72.89
2022-11-20T16:49:18.503Z,73.23
2022-11-20T16:54:21.177Z,73.49
2022-11-20T16:59:20.555Z,73.68
2022-11-20T17:04:19.554Z,73.44
2022-11-20T17:09:18.434Z,73.58
2022-11-20T17:14:17.261Z,73.69
2022-11-20T17:19:16.086Z,74.55
2022-11-20T17:24:16.241Z,76.04
2022-11-20T17:29:17.547Z,75.30
2022-11-20T17:34:16.948Z,74.64
2022-11-20T17:39:17.189Z,76.98
2022-11-20T17:44:15.999Z,76.59
2022-11-20T17:49:16.961Z,77.40
2022-11-20T17:54:17.750Z,76.30
2022-11-20T17:59:18.629Z,77.17
2022-11-20T18:04:17.627Z,77.30
2022-11-20T18:09:16.918Z,77.71
2022-11-20T18:14:32.871Z,77.26
2022-11-20T18:19:42.567Z,78.48
2022-11-20T18:24:50.338Z,77.82
2022-11-20T18:29:51.935Z,78.16
2022-11-20T18:34:51.348Z,77.84
2022-11-20T18:39:50.520Z,78.41
2022-11-20T18:44:53.677Z,77.48
2022-11-20T18:49:54.574Z,77.97
2022-11-20T19:00:21.814Z,77.67
2022-11-20T19:05:21.063Z,76.76
2022-11-20T19:10:20.475Z,77.64
2022-11-20T19:15:19.423Z,77.21
2022-11-20T19:20:19.036Z,76.99
2022-11-20T19:25:17.757Z,77.75
2022-11-20T19:30:17.376Z,78.56
2022-11-20T19:35:16.201Z,78.66
2022-11-20T19:40:14.902Z,79.29
2022-11-20T19:45:13.857Z,80.09
2022-11-20T19:50:13.090Z,80.21
2022-11-20T19:55:11.949Z,79.49
2022-11-20T20:06:38.929Z,78.23
2022-11-20T20:11:38.676Z,79.80
2022-11-20T20:16:37.596Z,79.10
2022-11-20T20:21:36.501Z,79.13
2022-11-20T20:26:35.174Z,79.50
2022-11-20T20:36:31.410Z,78.12
2022-11-20T20:41:31.038Z,78.57
2022-11-20T20:46:29.986Z,77.38
2022-11-20T20:51:28.781Z,78.02
2022-11-20T20:56:28.066Z,77.84
2022-11-20T21:01:28.716Z,77.82
2022-11-20T21:06:27.835Z,76.91
2022-11-20T21:11:26.576Z,77.10
2022-11-20T21:16:25.399Z,77.06
2022-11-20T21:21:42.807Z,77.04
2022-11-20T21:26:41.572Z,76.33
2022-11-20T21:31:40.270Z,76.89
2022-11-20T21:36:39.157Z,76.40
2022-11-20T21:41:38.784Z,76.50
2022-11-20T21:46:39.947Z,75.92
2022-11-20T21:51:38.952Z,73.96
2022-11-20T21:56:37.774Z,74.10
2022-11-20T22:01:36.615Z,75.23
2022-11-20T22:06:35.456Z,75.38
2022-11-20T22:11:34.145Z,75.64
2022-11-20T22:16:34.486Z,75.27
2022-11-20T22:21:34.328Z,74.12
2022-11-20T22:26:39.870Z,74.64
2022-11-20T22:31:39.192Z,73.92
2022-11-20T22:36:39.477Z,73.00
2022-11-20T22:41:38.357Z,72.79
2022-11-20T22:46:38.442Z,74.61
2022-11-20T22:51:39.603Z,75.15
2022-11-20T22:56:38.617Z,74.83
2022-11-20T23:01:37.935Z,74.50
2022-11-20T23:06:37.107Z,74.75
2022-11-20T23:11:36.417Z,76.58
2022-11-20T23:16:35.617Z,76.22
2022-11-20T23:21:37.241Z,76.00
2022-11-20T23:26:38.523Z,75.32
2022-11-20T23:31:37.299Z,75.98
2022-11-20T23:36:36.784Z,76.28
2022-11-20T23:41:35.547Z,76.04
2022-11-20T23:46:34.293Z,76.52
2022-11-20T23:51:33.014Z,77.11
2022-11-20T23:56:31.756Z,76.52
